LTFC Airport Information

Runway Information
Runway 05 Length 9843 ft width 148 ft
Elevation 2827 ft Threshold 0 ft Heading 50
Runway 23 Length 9843 ft Width 148 ft
Elevation 2835 ft Threshold 0 ft Heading 230
Airport Frequencies
Type GND Name ISPARTA GN Frequency 121.7 MHZ
Type TWR Name ISPARTA TW Frequency 119.2 MHZ
Airport Navaids
Type VOR-DME Name Isparta Frequency 117500 KHZ
Type NDB Name Isparta Frequency 349 KHZ
Airport Weather Information & NOTAM
ADDS - METARS form results

(0015 UTC 17 February 2019)
Data provider http://aviationweather.gov/metar/data/
 
METAR text: LTFC 162350Z 00000KT CAVOK M01/M04 Q1021 RMK RWY23 00000KT
Conditions at: LTFC (SULEYMAN DEMIREL, TR) observed 2350 UTC 16 February 2019
Temperature: -1.0°C (30°F)
Dewpoint: -4.0°C (25°F) [RH = 80%]
Pressure (altimeter): 30.15 inches Hg (1021.0 mb)
Winds: calm
Visibility: 6 or more miles (10+ km)
Ceiling: ceiling and visibility are OK
Clouds: unknown
Weather: no significant weather observed at this time

METAR text: LTFC 162320Z 00000KT CAVOK M01/M04 Q1021 RMK RWY23 00000KT
Conditions at: LTFC (SULEYMAN DEMIREL, TR) observed 2320 UTC 16 February 2019
Temperature: -1.0°C (30°F)
Dewpoint: -4.0°C (25°F) [RH = 80%]
Pressure (altimeter): 30.15 inches Hg (1021.0 mb)
Winds: calm
Visibility: 6 or more miles (10+ km)
Ceiling: ceiling and visibility are OK
Clouds: unknown
Weather: no significant weather observed at this time

Forecast for: LTFC (SULEYMAN DEMIREL, TR)
Text: TAF LTFC 162240Z 1700/1724 36005KT CAVOK
Forecast period: 0000 UTC 17 February 2019 to 0000 UTC 18 February 2019
Forecast type: FROM: standard forecast or significant change
Winds: from the N (360 degrees) at 6 MPH (5 knots; 2.6 m/s)
Visibility: 6 or more miles 10+ km)
Ceiling: unknown
Clouds: missing
Weather: NSW  (no significant weather)
Text: TEMPO 1710/1714 09015KT
Forecast period: 1000 to 1400 UTC 17 February 2019
Forecast type: TEMPORARY: The following changes expected for less than half the time period
Winds: from the E (90 degrees) at 17 MPH (15 knots; 7.7 m/s)
Visibility: missing
Ceiling: unknown
Clouds: missing
Weather: no significant weather forecast for this period